createdAt,value
2018-12-03T00:01:44.356Z,0.30
2018-12-03T00:04:19.647Z,0.40
2018-12-03T00:06:51.122Z,0.40
2018-12-03T00:09:22.553Z,0.30
2018-12-03T00:11:54.148Z,0.30
2018-12-03T00:14:25.539Z,0.40
2018-12-03T00:16:56.867Z,0.40
2018-12-03T00:19:28.220Z,0.40
2018-12-03T00:21:59.602Z,0.40
2018-12-03T00:24:31.123Z,0.40
2018-12-03T00:27:02.675Z,0.40
2018-12-03T00:29:34.174Z,0.40
2018-12-03T00:32:05.933Z,0.40
2018-12-03T00:34:37.744Z,0.40
2018-12-03T00:37:09.017Z,0.40
2018-12-03T00:39:40.340Z,0.40
2018-12-03T00:42:11.683Z,0.50
2018-12-03T00:44:42.835Z,0.50
2018-12-03T00:47:15.221Z,0.50
2018-12-03T00:49:46.517Z,0.50
2018-12-03T00:52:17.957Z,0.40
2018-12-03T00:54:49.396Z,0.50
2018-12-03T00:57:20.723Z,0.50
2018-12-03T00:59:52.136Z,0.50
2018-12-03T01:02:25.875Z,0.60
2018-12-03T01:04:57.067Z,0.50
2018-12-03T01:07:28.608Z,0.60
2018-12-03T01:09:59.953Z,0.60
2018-12-03T01:12:31.509Z,0.50
2018-12-03T01:15:02.884Z,0.60
2018-12-03T01:17:34.315Z,0.60
2018-12-03T01:20:08.963Z,0.60
2018-12-03T01:22:40.383Z,0.60
2018-12-03T01:25:12.059Z,0.60
2018-12-03T01:27:44.187Z,0.60
2018-12-03T01:30:15.837Z,0.60
2018-12-03T01:32:47.245Z,0.60
2018-12-03T01:35:18.472Z,0.60
2018-12-03T01:37:50.096Z,0.60
2018-12-03T01:40:21.644Z,0.60
2018-12-03T01:42:53.345Z,0.60
2018-12-03T01:45:24.487Z,0.60
2018-12-03T01:47:56.008Z,0.60
2018-12-03T01:50:27.518Z,0.50
2018-12-03T01:52:58.975Z,0.50
2018-12-03T01:55:30.352Z,0.50
2018-12-03T01:58:02.087Z,0.50
2018-12-03T02:00:33.729Z,0.50
2018-12-03T02:03:05.074Z,0.50
2018-12-03T02:05:36.098Z,0.60
2018-12-03T02:08:07.842Z,0.70
2018-12-03T02:10:39.265Z,0.60
2018-12-03T02:13:10.562Z,0.60
2018-12-03T02:15:41.938Z,0.70
2018-12-03T02:18:13.368Z,0.70
2018-12-03T02:20:44.706Z,0.70
2018-12-03T02:23:16.002Z,0.70
2018-12-03T02:25:47.267Z,0.70
2018-12-03T02:28:18.566Z,0.60
2018-12-03T02:30:49.756Z,0.60
2018-12-03T02:33:21.214Z,0.60
2018-12-03T02:35:52.686Z,0.60
2018-12-03T02:38:23.966Z,0.70
2018-12-03T02:40:55.371Z,0.70
2018-12-03T02:43:26.834Z,0.60
2018-12-03T02:45:58.203Z,0.60
2018-12-03T02:48:29.432Z,0.60
2018-12-03T02:51:00.792Z,0.60
2018-12-03T02:53:32.052Z,0.70
2018-12-03T02:56:03.850Z,0.60
2018-12-03T02:58:35.264Z,0.60
2018-12-03T03:01:07.022Z,0.60
2018-12-03T03:03:38.503Z,0.50
2018-12-03T03:06:09.877Z,0.50
2018-12-03T03:08:41.177Z,0.50
2018-12-03T03:11:12.567Z,0.50
2018-12-03T03:13:43.934Z,0.50
2018-12-03T03:16:15.448Z,0.50
2018-12-03T03:18:46.793Z,0.60
2018-12-03T03:21:18.075Z,0.50
2018-12-03T03:23:49.555Z,0.50
2018-12-03T03:26:20.890Z,0.50
2018-12-03T03:28:52.228Z,0.50
2018-12-03T03:31:23.694Z,0.50
2018-12-03T03:33:54.932Z,0.50
2018-12-03T03:36:26.145Z,0.50
2018-12-03T03:38:57.535Z,0.60
2018-12-03T03:41:28.902Z,0.60
2018-12-03T03:44:00.265Z,0.60
2018-12-03T03:46:31.549Z,0.60
2018-12-03T03:49:03.052Z,0.60
2018-12-03T03:51:34.571Z,0.60
2018-12-03T03:54:06.280Z,0.60
2018-12-03T03:56:37.696Z,0.60
2018-12-03T03:59:09.134Z,0.60
2018-12-03T04:01:40.379Z,0.60
2018-12-03T04:04:11.827Z,0.50
2018-12-03T04:06:43.107Z,0.60
2018-12-03T04:09:14.605Z,0.60
2018-12-03T04:11:46.160Z,0.60
2018-12-03T04:14:17.451Z,0.60
2018-12-03T04:16:48.902Z,0.50
2018-12-03T04:19:20.233Z,0.60
2018-12-03T04:21:51.801Z,0.50
2018-12-03T04:24:23.144Z,0.60
2018-12-03T04:26:54.619Z,0.60
2018-12-03T04:29:25.840Z,0.60
2018-12-03T04:31:57.265Z,0.60
2018-12-03T04:34:28.719Z,0.60
2018-12-03T04:36:59.840Z,0.60
2018-12-03T04:39:31.319Z,0.60
2018-12-03T04:42:02.710Z,0.60
2018-12-03T04:44:34.015Z,0.60
2018-12-03T04:47:05.355Z,0.70
2018-12-03T04:49:36.706Z,0.70
2018-12-03T04:52:08.469Z,0.70
2018-12-03T04:54:39.928Z,0.70
2018-12-03T04:57:11.855Z,0.60
2018-12-03T04:59:43.337Z,0.70
2018-12-03T05:02:14.659Z,0.70
2018-12-03T05:04:45.713Z,0.70
2018-12-03T05:07:17.310Z,0.70
2018-12-03T05:09:48.544Z,0.70
2018-12-03T05:12:20.116Z,0.70
2018-12-03T05:14:51.567Z,0.70
2018-12-03T05:17:23.100Z,0.70
2018-12-03T05:19:54.342Z,0.70
2018-12-03T05:22:25.854Z,0.80
2018-12-03T05:24:57.519Z,0.70
2018-12-03T05:27:29.018Z,0.80
2018-12-03T05:30:00.832Z,0.70
2018-12-03T05:32:33.262Z,0.70
2018-12-03T05:35:04.619Z,0.80
2018-12-03T05:37:36.241Z,0.80
2018-12-03T05:40:14.353Z,0.70
2018-12-03T05:42:45.751Z,0.80
2018-12-03T05:45:17.329Z,0.80
2018-12-03T05:47:48.731Z,0.80
2018-12-03T05:50:20.022Z,0.80
2018-12-03T05:52:51.343Z,0.90
2018-12-03T05:55:22.792Z,0.90
2018-12-03T05:57:54.159Z,0.90
2018-12-03T06:00:26.017Z,0.90
2018-12-03T06:02:57.370Z,0.90
2018-12-03T06:05:28.757Z,0.90
2018-12-03T06:08:00.172Z,0.90
2018-12-03T06:10:31.659Z,0.90
2018-12-03T06:13:02.860Z,1.00
2018-12-03T06:15:34.532Z,1.00
2018-12-03T06:18:05.669Z,1.00
2018-12-03T06:20:38.305Z,0.90
2018-12-03T06:23:09.655Z,0.90
2018-12-03T06:25:41.059Z,0.90
2018-12-03T06:28:12.356Z,0.80
2018-12-03T06:30:43.719Z,0.80
2018-12-03T06:33:15.019Z,0.80
2018-12-03T06:35:46.310Z,0.80
2018-12-03T06:38:17.663Z,0.80
2018-12-03T06:40:48.830Z,0.80
2018-12-03T06:43:20.253Z,0.80
2018-12-03T06:45:51.711Z,0.80
2018-12-03T06:48:24.672Z,0.80
2018-12-03T06:50:56.173Z,0.90
2018-12-03T06:53:28.394Z,0.90
2018-12-03T06:55:59.772Z,0.90
2018-12-03T06:58:31.247Z,0.90
2018-12-03T07:01:02.747Z,0.80
2018-12-03T07:03:34.204Z,0.80
2018-12-03T07:06:05.805Z,0.90
2018-12-03T07:08:37.311Z,0.80
2018-12-03T07:11:08.783Z,0.80
2018-12-03T07:13:40.640Z,0.90
2018-12-03T07:16:12.093Z,1.10
2018-12-03T07:18:43.475Z,1.00
2018-12-03T07:21:14.722Z,1.00
2018-12-03T07:23:45.742Z,1.00
2018-12-03T07:26:17.286Z,1.00
2018-12-03T07:28:48.754Z,1.00
2018-12-03T07:31:20.276Z,1.00
2018-12-03T07:33:51.511Z,0.90
2018-12-03T07:36:23.129Z,0.90
2018-12-03T07:38:54.824Z,0.90
2018-12-03T07:41:26.224Z,0.90
2018-12-03T07:43:57.652Z,1.00
2018-12-03T07:46:28.951Z,1.00
2018-12-03T07:49:00.221Z,1.00
2018-12-03T07:51:31.595Z,1.00
2018-12-03T07:54:03.077Z,1.00
2018-12-03T07:56:34.443Z,1.00
2018-12-03T07:59:06.227Z,1.00
2018-12-03T08:01:37.661Z,1.00
2018-12-03T08:04:08.530Z,1.00
2018-12-03T08:06:40.204Z,1.00
2018-12-03T08:09:11.931Z,1.10
2018-12-03T08:11:43.279Z,1.10
2018-12-03T08:14:14.720Z,1.00
2018-12-03T08:16:46.139Z,1.10
2018-12-03T08:19:17.551Z,1.10
2018-12-03T08:21:48.718Z,1.10
2018-12-03T08:24:20.158Z,1.10
2018-12-03T08:26:51.815Z,1.10
2018-12-03T08:29:23.117Z,1.10
2018-12-03T08:31:54.583Z,1.10
2018-12-03T08:34:25.776Z,1.20
2018-12-03T08:36:57.179Z,1.20
2018-12-03T08:39:28.379Z,1.20
2018-12-03T08:41:59.833Z,1.20
2018-12-03T08:44:32.509Z,1.20
2018-12-03T08:47:12.802Z,1.20
2018-12-03T08:49:44.666Z,1.20
2018-12-03T08:52:16.186Z,1.20
2018-12-03T08:54:47.604Z,1.20
2018-12-03T08:57:18.788Z,1.10
2018-12-03T08:59:50.442Z,1.10
2018-12-03T09:02:21.740Z,1.20
2018-12-03T09:04:54.576Z,1.20
2018-12-03T09:07:25.860Z,1.20
2018-12-03T09:09:57.311Z,1.30
2018-12-03T09:12:28.623Z,1.30
2018-12-03T09:15:00.108Z,1.30
2018-12-03T09:17:31.503Z,1.30
2018-12-03T09:20:03.118Z,1.20
2018-12-03T09:22:34.665Z,1.20
2018-12-03T09:25:08.786Z,1.20
2018-12-03T09:27:40.320Z,1.30
2018-12-03T09:30:11.778Z,1.30
2018-12-03T09:32:43.625Z,1.30
2018-12-03T09:35:15.539Z,1.30
2018-12-03T09:37:47.124Z,1.30
2018-12-03T09:40:21.641Z,1.40
2018-12-03T09:42:53.068Z,1.40
2018-12-03T09:45:24.484Z,1.50
2018-12-03T09:47:55.973Z,1.40
2018-12-03T09:50:30.159Z,1.50
2018-12-03T09:53:01.716Z,1.40
2018-12-03T09:55:34.156Z,1.40
2018-12-03T09:58:13.622Z,1.40
2018-12-03T10:00:45.347Z,1.40
2018-12-03T10:03:25.982Z,1.40
2018-12-03T10:06:01.762Z,1.30
2018-12-03T10:08:34.081Z,1.30
2018-12-03T10:11:05.935Z,1.30
2018-12-03T10:13:37.445Z,1.30
2018-12-03T10:16:08.728Z,1.30
2018-12-03T10:18:40.283Z,1.20
2018-12-03T10:21:11.610Z,1.20
2018-12-03T10:23:43.051Z,1.20
2018-12-03T10:26:15.532Z,1.30
2018-12-03T10:28:46.914Z,1.30
2018-12-03T10:31:18.284Z,1.40
2018-12-03T10:33:50.321Z,1.40
2018-12-03T10:36:21.857Z,1.40
2018-12-03T10:38:53.312Z,1.40
2018-12-03T10:41:28.775Z,1.40
2018-12-03T10:44:02.778Z,1.40
2018-12-03T10:46:34.691Z,1.40
2018-12-03T10:49:09.647Z,1.40
2018-12-03T10:51:41.197Z,1.40
2018-12-03T10:54:12.506Z,1.40
2018-12-03T10:56:44.085Z,1.40
2018-12-03T10:59:15.552Z,1.40
2018-12-03T11:01:51.148Z,1.40
2018-12-03T11:04:27.297Z,1.40
2018-12-03T11:06:58.898Z,1.40
2018-12-03T11:09:33.092Z,1.50
2018-12-03T11:12:02.075Z,1.50
2018-12-03T11:14:34.256Z,1.50
2018-12-03T11:17:06.513Z,1.50
2018-12-03T11:19:38.099Z,1.60
2018-12-03T11:22:09.475Z,1.60
2018-12-03T11:24:40.864Z,1.50
2018-12-03T11:27:12.448Z,1.50
2018-12-03T11:29:43.890Z,1.50
2018-12-03T11:32:20.879Z,1.50
2018-12-03T11:34:52.655Z,1.50
2018-12-03T11:37:24.424Z,1.50
2018-12-03T11:40:03.328Z,1.60
2018-12-03T11:42:37.515Z,1.60
2018-12-03T11:45:11.205Z,1.60
2018-12-03T11:47:42.935Z,1.70
2018-12-03T11:50:14.667Z,1.70
2018-12-03T11:52:45.988Z,1.70
2018-12-03T11:55:17.369Z,1.60
2018-12-03T11:57:49.003Z,1.60
2018-12-03T12:00:20.372Z,1.60
2018-12-03T12:02:51.637Z,1.60
2018-12-03T12:05:23.107Z,1.60
2018-12-03T12:07:54.627Z,1.70
2018-12-03T12:10:26.017Z,1.70
2018-12-03T12:12:57.253Z,1.70
2018-12-03T12:15:28.431Z,1.70
2018-12-03T12:17:59.817Z,1.70
2018-12-03T12:20:31.461Z,1.70
2018-12-03T12:23:02.947Z,1.80
2018-12-03T12:25:34.367Z,1.80
2018-12-03T12:28:06.028Z,1.80
2018-12-03T12:30:37.539Z,1.80
2018-12-03T12:33:09.045Z,1.80
2018-12-03T12:35:41.305Z,1.80
2018-12-03T12:38:12.673Z,1.80
2018-12-03T12:40:44.328Z,1.90
2018-12-03T12:43:15.757Z,1.90
2018-12-03T12:45:54.869Z,1.90
2018-12-03T12:48:26.263Z,1.90
2018-12-03T12:50:57.773Z,1.80
2018-12-03T12:53:29.243Z,1.90
2018-12-03T12:56:00.747Z,1.90
2018-12-03T12:58:32.040Z,1.90
2018-12-03T13:01:03.531Z,1.90
2018-12-03T13:03:34.735Z,1.80
2018-12-03T13:06:06.221Z,1.90
2018-12-03T13:08:37.790Z,1.90
2018-12-03T13:11:09.559Z,1.90
2018-12-03T13:13:41.213Z,1.90
2018-12-03T13:16:13.163Z,1.90
2018-12-03T13:18:44.510Z,1.90
2018-12-03T13:21:16.226Z,1.90
2018-12-03T13:23:47.783Z,1.90
2018-12-03T13:26:19.198Z,2.00
2018-12-03T13:28:50.710Z,2.00
2018-12-03T13:31:22.445Z,2.10
2018-12-03T13:33:53.514Z,2.10
2018-12-03T13:36:25.400Z,2.10
2018-12-03T13:38:56.828Z,2.20
2018-12-03T13:41:28.273Z,2.10
2018-12-03T13:44:52.535Z,2.20
2018-12-03T13:47:26.880Z,2.20
2018-12-03T13:50:00.977Z,2.10
2018-12-03T13:52:35.281Z,2.20
2018-12-03T13:55:17.771Z,2.10
2018-12-03T13:57:52.746Z,2.10
2018-12-03T14:00:27.789Z,2.10
2018-12-03T14:03:15.021Z,2.10
2018-12-03T14:06:40.294Z,2.20
2018-12-03T14:09:37.209Z,2.20
2018-12-03T14:12:21.674Z,2.10
2018-12-03T14:15:55.255Z,2.10
2018-12-03T14:18:47.283Z,2.10
2018-12-03T14:21:37.694Z,2.10
2018-12-03T14:24:21.115Z,2.10
2018-12-03T14:26:55.486Z,2.10
2018-12-03T14:29:34.026Z,2.10
2018-12-03T14:32:08.701Z,2.10
2018-12-03T14:34:43.578Z,2.10
2018-12-03T14:37:18.226Z,2.20
2018-12-03T14:39:52.671Z,2.20
2018-12-03T14:42:26.873Z,2.20
2018-12-03T14:45:01.257Z,2.20
2018-12-03T14:47:35.464Z,2.10
2018-12-03T14:50:11.730Z,2.10
2018-12-03T14:52:46.594Z,2.10
2018-12-03T14:55:20.615Z,2.10
2018-12-03T14:57:54.951Z,2.10
2018-12-03T15:00:29.674Z,2.10
2018-12-03T15:03:05.315Z,2.10
2018-12-03T15:05:40.182Z,2.20
2018-12-03T15:08:14.309Z,2.20
2018-12-03T15:10:48.774Z,2.20
2018-12-03T15:13:23.313Z,2.10
2018-12-03T15:15:58.071Z,2.10
2018-12-03T15:18:36.660Z,2.10
2018-12-03T15:21:10.879Z,2.10
2018-12-03T15:23:45.131Z,2.10
2018-12-03T15:26:19.274Z,2.10
2018-12-03T15:28:53.515Z,2.10
2018-12-03T15:31:31.763Z,2.10
2018-12-03T15:34:05.820Z,2.10
2018-12-03T15:36:40.335Z,2.10
2018-12-03T15:39:14.915Z,2.10
2018-12-03T15:41:53.012Z,2.10
2018-12-03T15:44:27.043Z,2.10
2018-12-03T15:47:05.274Z,2.20
2018-12-03T15:49:39.450Z,2.10
2018-12-03T15:52:13.574Z,2.10
2018-12-03T15:54:51.779Z,2.20
2018-12-03T15:57:25.802Z,2.20
2018-12-03T16:00:05.816Z,2.30
2018-12-03T16:02:40.092Z,2.20
2018-12-03T16:05:20.678Z,2.20
2018-12-03T16:07:55.393Z,2.20
2018-12-03T16:10:29.632Z,2.20
2018-12-03T16:13:03.707Z,2.20
2018-12-03T16:15:37.960Z,2.30
2018-12-03T16:18:12.306Z,2.20
2018-12-03T16:20:50.613Z,2.20
2018-12-03T16:23:24.413Z,2.20
2018-12-03T16:25:58.647Z,2.20
2018-12-03T16:28:32.915Z,2.30
2018-12-03T16:31:07.284Z,2.20
2018-12-03T16:33:41.338Z,2.20
2018-12-03T16:36:15.750Z,2.20
2018-12-03T16:38:50.125Z,2.20
2018-12-03T16:41:24.335Z,2.20
2018-12-03T16:44:05.816Z,2.20
2018-12-03T16:46:40.565Z,2.20
2018-12-03T16:49:14.695Z,2.20
2018-12-03T16:51:49.423Z,2.20
2018-12-03T16:54:23.341Z,2.30
2018-12-03T16:56:58.138Z,2.30
2018-12-03T16:59:32.391Z,2.30
2018-12-03T17:02:06.569Z,2.30
2018-12-03T17:04:44.721Z,2.40
2018-12-03T17:07:19.128Z,2.30
2018-12-03T17:09:53.193Z,2.30
2018-12-03T17:12:32.263Z,2.30
2018-12-03T17:15:07.258Z,2.30
2018-12-03T17:17:41.997Z,2.30
2018-12-03T17:21:42.434Z,2.30
2018-12-03T17:24:24.546Z,2.30
2018-12-03T17:26:59.325Z,2.40
2018-12-03T17:29:37.650Z,2.40
2018-12-03T17:32:15.623Z,2.40
2018-12-03T17:34:50.092Z,2.40
2018-12-03T17:37:25.150Z,2.40
2018-12-03T17:39:59.915Z,2.40
2018-12-03T17:42:34.340Z,2.40
2018-12-03T17:45:12.160Z,2.50
2018-12-03T17:47:46.962Z,2.60
2018-12-03T17:50:25.103Z,2.60
2018-12-03T17:55:36.500Z,2.50
2018-12-03T17:58:10.584Z,2.50
2018-12-03T18:00:45.095Z,2.50
2018-12-03T18:03:19.498Z,2.50
2018-12-03T18:05:53.830Z,2.50
2018-12-03T18:08:27.764Z,2.50
2018-12-03T18:11:02.471Z,2.50
2018-12-03T18:13:37.056Z,2.50
2018-12-03T18:16:11.442Z,2.50
2018-12-03T18:18:45.421Z,2.50
2018-12-03T18:21:19.654Z,2.40
2018-12-03T18:23:53.895Z,2.40
2018-12-03T18:26:27.904Z,2.40
2018-12-03T18:29:02.114Z,2.40
2018-12-03T18:31:36.458Z,2.40
2018-12-03T18:34:14.928Z,2.40
2018-12-03T18:36:49.788Z,2.40
2018-12-03T18:39:25.189Z,2.50
2018-12-03T18:42:00.825Z,2.50
2018-12-03T18:44:42.684Z,2.50
2018-12-03T18:47:17.877Z,2.50
2018-12-03T18:49:55.383Z,2.50
2018-12-03T18:52:29.609Z,2.60
2018-12-03T19:00:16.163Z,2.60
2018-12-03T19:02:54.540Z,2.50
2018-12-03T19:05:29.612Z,2.60
2018-12-03T19:08:07.650Z,2.60
2018-12-03T19:10:42.037Z,2.60
2018-12-03T19:13:16.319Z,2.70
2018-12-03T19:15:55.256Z,2.70
2018-12-03T19:18:29.696Z,2.70
2018-12-03T19:21:03.830Z,2.70
2018-12-03T19:23:45.210Z,2.60
2018-12-03T19:26:23.895Z,2.60
2018-12-03T19:28:58.393Z,2.60
2018-12-03T19:31:37.530Z,2.60
2018-12-03T19:34:12.080Z,2.60
2018-12-03T19:36:46.444Z,2.70
2018-12-03T19:39:20.843Z,2.70
2018-12-03T19:41:54.890Z,2.70
2018-12-03T19:44:29.216Z,2.70
2018-12-03T19:47:03.805Z,2.70
2018-12-03T19:49:38.428Z,2.70
2018-12-03T19:52:14.863Z,2.70
2018-12-03T19:54:50.132Z,2.70
2018-12-03T19:57:33.200Z,2.80
2018-12-03T20:00:13.053Z,2.80
2018-12-03T20:02:47.504Z,2.80
2018-12-03T20:05:25.734Z,2.80
2018-12-03T20:07:59.982Z,2.80
2018-12-03T20:10:34.102Z,2.80
2018-12-03T20:13:08.301Z,2.80
2018-12-03T20:15:46.503Z,2.80
2018-12-03T20:18:20.754Z,2.80
2018-12-03T20:21:01.176Z,2.80
2018-12-03T20:23:57.829Z,2.80
2018-12-03T20:26:47.518Z,2.80
2018-12-03T20:29:32.517Z,2.90
2018-12-03T20:32:29.246Z,2.80
2018-12-03T20:35:22.272Z,2.80
2018-12-03T20:38:09.250Z,2.80
2018-12-03T20:41:08.970Z,2.80
2018-12-03T20:43:49.013Z,2.80
2018-12-03T20:46:44.664Z,2.80
2018-12-03T20:49:45.222Z,2.80
2018-12-03T20:52:26.115Z,2.80
2018-12-03T20:55:09.522Z,2.80
2018-12-03T20:57:44.081Z,2.80
2018-12-03T21:00:19.080Z,2.90
2018-12-03T21:02:58.393Z,3.00
2018-12-03T21:05:33.287Z,3.00
2018-12-03T21:08:11.939Z,3.00
2018-12-03T21:10:46.879Z,3.00
2018-12-03T21:13:21.674Z,3.00
2018-12-03T21:15:58.923Z,2.90
2018-12-03T21:18:40.728Z,2.90
2018-12-03T21:21:15.271Z,2.90
2018-12-03T21:23:50.390Z,2.90
2018-12-03T21:26:24.675Z,3.00
2018-12-03T21:28:59.339Z,3.00
2018-12-03T21:31:34.037Z,3.00
2018-12-03T21:34:08.402Z,3.00
2018-12-03T21:36:46.758Z,3.00
2018-12-03T21:39:31.040Z,3.00
2018-12-03T21:42:06.089Z,3.00
2018-12-03T21:44:40.654Z,3.10
2018-12-03T21:47:14.727Z,3.00
2018-12-03T21:49:48.938Z,3.00
2018-12-03T21:52:23.189Z,3.00
2018-12-03T21:54:57.579Z,3.00
2018-12-03T21:57:31.844Z,3.00
2018-12-03T22:00:07.939Z,3.00
2018-12-03T22:02:42.805Z,3.00
2018-12-03T22:05:16.717Z,3.10
2018-12-03T22:07:50.887Z,3.10
2018-12-03T22:10:25.463Z,3.10
2018-12-03T22:13:03.319Z,3.10
2018-12-03T22:15:37.648Z,3.10
2018-12-03T22:18:11.964Z,3.00
2018-12-03T22:20:46.697Z,3.00
2018-12-03T22:23:25.399Z,3.00
2018-12-03T22:25:59.722Z,3.00
2018-12-03T22:28:33.841Z,3.00
2018-12-03T22:31:08.089Z,3.00
2018-12-03T22:33:42.806Z,3.00
2018-12-03T22:36:17.072Z,3.00
2018-12-03T22:38:58.294Z,2.90
2018-12-03T22:41:32.640Z,2.90
2018-12-03T22:44:11.080Z,3.00
2018-12-03T22:46:45.444Z,3.00
2018-12-03T22:49:19.823Z,3.00
2018-12-03T22:52:01.065Z,3.00
2018-12-03T22:54:36.314Z,3.10
2018-12-03T22:57:10.689Z,3.10
2018-12-03T22:59:45.183Z,3.00
2018-12-03T23:02:20.251Z,3.10
2018-12-03T23:04:59.110Z,3.10
2018-12-03T23:07:33.489Z,3.00
2018-12-03T23:10:07.935Z,3.10
2018-12-03T23:12:42.553Z,3.10
2018-12-03T23:15:17.546Z,3.00
2018-12-03T23:17:51.638Z,3.00
2018-12-03T23:20:26.050Z,3.10
2018-12-03T23:23:04.394Z,3.10
2018-12-03T23:25:38.987Z,3.10
2018-12-03T23:28:13.539Z,3.10
2018-12-03T23:30:47.788Z,3.10
2018-12-03T23:33:22.162Z,3.10
2018-12-03T23:35:56.414Z,3.10
2018-12-03T23:38:30.528Z,3.10
2018-12-03T23:41:04.578Z,3.10
2018-12-03T23:43:38.815Z,3.10
2018-12-03T23:46:12.983Z,3.10
2018-12-03T23:48:47.296Z,3.10
2018-12-03T23:51:21.643Z,3.10
2018-12-03T23:53:56.161Z,3.10
2018-12-03T23:56:30.429Z,3.10
2018-12-03T23:59:04.679Z,3.10
